Time;durP1;ratioP1;P1;durP2;ratioP2;P2;SDS_P1;SDS_P2;PMS_P1;PMS_P2;Temp;Humidity;BMP_temperature;BMP_pressure;BME280_temperature;BME280_humidity;BME280_pressure;Samples;Min_cycle;Max_cycle;Signal;HPM_P1;HPM_P2
2022/05/01 00:01:14;;;;;;;28.30;20.30;;;4.60;99.90;;;;;;2234601;64;20210;-71
2022/05/01 00:03:53;;;;;;;23.00;17.95;;;4.80;99.90;;;;;;2238066;64;20293;-71
2022/05/01 00:06:33;;;;;;;26.23;19.40;;;5.00;99.90;;;;;;2238277;64;20237;-72
2022/05/01 00:09:09;;;;;;;28.80;17.23;;;4.50;99.90;;;;;;2237555;64;20311;-72
2022/05/01 00:11:47;;;;;;;26.17;19.65;;;4.50;99.90;;;;;;2238737;64;20291;-71
2022/05/01 00:14:23;;;;;;;27.73;19.70;;;4.50;99.90;;;;;;2236777;64;20182;-72
2022/05/01 00:17:01;;;;;;;28.75;19.80;;;4.40;99.90;;;;;;2237742;64;20167;-73
2022/05/01 00:19:38;;;;;;;28.05;19.10;;;4.40;99.90;;;;;;2237993;64;20570;-71
2022/05/01 00:22:16;;;;;;;30.70;18.55;;;4.40;99.90;;;;;;2238267;64;20184;-73
2022/05/01 00:24:57;;;;;;;26.98;19.20;;;4.40;99.90;;;;;;2238216;64;20178;-72
2022/05/01 00:27:36;;;;;;;30.38;19.42;;;4.40;99.90;;;;;;2232906;64;20909;-71
2022/05/01 00:30:13;;;;;;;31.13;22.63;;;4.30;99.90;;;;;;2236641;63;20281;-72
2022/05/01 00:38:39;;;;;;;27.63;20.45;;;4.20;99.90;;;;;;2237599;64;20169;-71
2022/05/01 00:41:16;;;;;;;30.27;20.48;;;4.20;99.90;;;;;;2238507;64;20189;-71
2022/05/01 00:44:03;;;;;;;34.08;21.70;;;4.10;99.90;;;;;;2238065;64;20193;-72
2022/05/01 00:46:45;;;;;;;33.78;22.77;;;4.20;99.90;;;;;;2236207;64;20246;-71
2022/05/01 00:49:24;;;;;;;30.55;22.42;;;4.10;99.90;;;;;;2238092;64;20331;-71
2022/05/01 00:52:11;;;;;;;32.03;23.75;;;4.10;99.90;;;;;;2237986;64;20499;-71
2022/05/01 00:54:52;;;;;;;31.90;21.95;;;4.00;99.90;;;;;;2237906;64;20318;-72
2022/05/01 00:57:33;;;;;;;29.70;22.40;;;4.00;99.90;;;;;;2238070;64;20233;-71
2022/05/01 01:00:13;;;;;;;29.23;21.50;;;4.00;99.90;;;;;;2237434;64;20169;-71
2022/05/01 01:02:50;;;;;;;31.33;22.35;;;4.00;99.90;;;;;;2236632;64;20162;-72
2022/05/01 01:05:31;;;;;;;31.98;21.60;;;3.90;99.90;;;;;;2236536;64;20170;-71
2022/05/01 01:08:10;;;;;;;32.50;22.58;;;3.90;99.90;;;;;;2238203;64;20166;-71
2022/05/01 01:10:48;;;;;;;32.65;21.90;;;3.90;99.90;;;;;;2235554;64;20728;-71
2022/05/01 01:13:29;;;;;;;33.35;22.73;;;3.90;99.90;;;;;;2238057;64;20170;-71
2022/05/01 01:16:10;;;;;;;32.83;22.55;;;3.80;99.90;;;;;;2236895;64;20542;-72
2022/05/01 01:18:47;;;;;;;29.10;21.27;;;3.80;99.90;;;;;;2238119;64;20214;-73
2022/05/01 01:21:25;;;;;;;32.13;23.05;;;3.80;99.90;;;;;;2237502;64;20158;-72
2022/05/01 01:24:09;;;;;;;33.20;23.15;;;3.70;99.90;;;;;;2237881;64;20297;-73
2022/05/01 01:26:46;;;;;;;31.35;23.58;;;3.70;99.90;;;;;;2237752;64;20218;-72
2022/05/01 01:32:22;;;;;;;32.78;23.05;;;3.70;99.90;;;;;;2238308;64;20183;-71
2022/05/01 01:35:04;;;;;;;32.38;23.63;;;3.60;99.90;;;;;;2238187;64;20573;-74
2022/05/01 01:37:47;;;;;;;30.42;21.92;;;3.60;99.90;;;;;;2237484;64;20363;-74
2022/05/01 01:40:25;;;;;;;37.08;24.73;;;3.70;99.90;;;;;;2234385;64;20191;-72
2022/05/01 01:43:05;;;;;;;31.80;22.15;;;3.60;99.90;;;;;;2234597;64;20184;-72
2022/05/01 01:45:43;;;;;;;33.63;22.90;;;3.60;99.90;;;;;;2237724;64;20174;-73
2022/05/01 01:48:24;;;;;;;31.35;21.38;;;3.60;99.90;;;;;;2236362;64;20277;-73
2022/05/01 01:51:06;;;;;;;30.38;21.70;;;3.50;99.90;;;;;;2233952;64;20151;-72
2022/05/01 01:53:46;;;;;;;30.90;22.15;;;3.50;99.90;;;;;;2234385;64;20316;-72
2022/05/01 01:56:26;;;;;;;32.33;23.48;;;3.50;99.90;;;;;;2230491;64;20175;-72
2022/05/01 01:59:02;;;;;;;27.95;21.90;;;3.50;99.90;;;;;;2236807;64;20964;-73
2022/05/01 02:01:43;;;;;;;31.27;22.38;;;3.50;99.90;;;;;;2236184;63;20245;-73
2022/05/01 02:04:24;;;;;;;32.53;23.52;;;3.40;99.90;;;;;;2235062;64;20178;-72
2022/05/01 02:07:03;;;;;;;32.80;23.17;;;3.40;99.90;;;;;;2240249;63;20216;-74
2022/05/01 02:09:40;;;;;;;32.15;22.20;;;3.40;99.90;;;;;;2240233;64;20174;-72
2022/05/01 02:12:19;;;;;;;33.13;23.17;;;3.40;99.90;;;;;;2240167;64;20186;-73
2022/05/01 02:14:56;;;;;;;33.15;22.88;;;3.40;99.90;;;;;;2238583;64;20186;-73
2022/05/01 02:17:34;;;;;;;30.13;22.48;;;3.40;99.90;;;;;;2238742;64;20166;-73
2022/05/01 02:20:12;;;;;;;34.10;22.98;;;3.40;99.90;;;;;;2233780;64;20232;-72
2022/05/01 02:22:55;;;;;;;29.60;22.00;;;3.30;99.90;;;;;;2233567;64;20634;-72
2022/05/01 02:25:32;;;;;;;29.40;23.10;;;3.30;99.90;;;;;;2237618;64;20787;-72
2022/05/01 02:28:13;;;;;;;32.88;22.42;;;3.20;99.90;;;;;;2238584;64;20356;-72
2022/05/01 02:30:53;;;;;;;31.73;22.73;;;3.20;99.90;;;;;;2238875;64;20162;-71
2022/05/01 02:33:34;;;;;;;33.05;23.23;;;3.20;99.90;;;;;;2238378;64;20210;-73
2022/05/01 02:36:16;;;;;;;31.80;23.23;;;3.20;99.90;;;;;;2238109;64;20184;-72
2022/05/01 02:38:54;;;;;;;33.63;23.23;;;3.20;99.90;;;;;;2237774;64;20233;-71
2022/05/01 02:41:34;;;;;;;31.23;22.45;;;3.20;99.90;;;;;;2235697;64;20187;-72
2022/05/01 02:44:11;;;;;;;31.15;22.25;;;3.10;99.90;;;;;;2240835;64;20191;-72
2022/05/01 02:46:53;;;;;;;33.92;23.63;;;3.10;99.90;;;;;;2240066;64;20721;-72
2022/05/01 02:49:35;;;;;;;32.88;22.55;;;3.10;99.90;;;;;;2239682;64;20207;-72
2022/05/01 02:52:12;;;;;;;32.72;23.77;;;3.00;99.90;;;;;;2239210;64;20630;-71
2022/05/01 02:54:49;;;;;;;31.13;21.25;;;3.10;99.90;;;;;;2239202;64;20186;-72
2022/05/01 02:57:25;;;;;;;30.58;21.58;;;3.00;99.90;;;;;;2239007;64;20687;-71
2022/05/01 03:00:05;;;;;;;29.35;21.88;;;3.00;99.90;;;;;;2238721;64;20170;-71
2022/05/01 03:02:43;;;;;;;30.25;22.98;;;2.90;99.90;;;;;;2239229;64;20665;-71
2022/05/01 03:05:26;;;;;;;28.00;19.13;;;2.90;99.90;;;;;;2238329;64;20304;-71
2022/05/01 03:08:03;;;;;;;27.75;19.92;;;2.90;99.90;;;;;;2246120;63;20197;-71
2022/05/01 03:10:40;;;;;;;29.15;21.40;;;2.80;99.90;;;;;;2247999;63;20788;-71
2022/05/01 03:13:18;;;;;;;24.10;19.42;;;2.80;99.90;;;;;;2243329;63;20166;-71
2022/05/01 03:15:56;;;;;;;22.60;18.60;;;2.80;99.90;;;;;;2240502;64;20796;-71
2022/05/01 03:24:26;;;;;;;26.27;20.10;;;2.70;99.90;;;;;;2243291;64;20623;-71
2022/05/01 03:27:05;;;;;;;28.00;21.27;;;2.60;99.90;;;;;;2237915;64;20193;-71
2022/05/01 03:30:15;;;;;;;31.35;21.70;;;2.60;99.90;;;;;;2234422;64;20188;-71
2022/05/01 03:32:43;;;;;;;28.08;23.05;;;2.60;99.90;;;;;;2231813;64;20192;-71
2022/05/01 03:35:22;;;;;;;31.55;23.90;;;2.50;99.90;;;;;;2231519;64;20182;-72
2022/05/01 03:38:00;;;;;;;32.70;23.45;;;2.50;99.90;;;;;;2236232;64;20230;-71
2022/05/01 03:40:40;;;;;;;35.50;24.02;;;2.50;99.90;;;;;;2240242;64;20187;-72
2022/05/01 03:43:19;;;;;;;35.55;24.70;;;2.50;99.90;;;;;;2239313;64;20199;-71
2022/05/01 03:46:00;;;;;;;38.00;25.90;;;2.70;99.90;;;;;;2238762;64;20170;-72
2022/05/01 03:48:41;;;;;;;34.97;23.58;;;2.50;99.90;;;;;;2238867;64;20247;-71
2022/05/01 03:51:21;;;;;;;36.10;25.05;;;2.50;99.90;;;;;;2239024;64;20810;-71
2022/05/01 03:54:02;;;;;;;37.60;25.00;;;2.50;99.90;;;;;;2238686;64;20717;-71
2022/05/01 03:56:40;;;;;;;34.83;24.65;;;2.50;99.90;;;;;;2238567;64;20199;-71
2022/05/01 03:59:20;;;;;;;31.63;23.42;;;2.50;99.90;;;;;;2238760;64;20311;-71
2022/05/01 04:02:00;;;;;;;35.78;25.77;;;2.50;99.90;;;;;;2238819;64;20188;-71
2022/05/01 04:04:38;;;;;;;33.60;24.88;;;2.40;99.90;;;;;;2238776;64;20174;-70
2022/05/01 04:07:19;;;;;;;32.20;23.38;;;2.50;99.90;;;;;;2239105;64;20265;-72
2022/05/01 04:10:00;;;;;;;36.10;24.90;;;2.40;99.90;;;;;;2239557;64;20619;-71
2022/05/01 04:12:42;;;;;;;38.35;25.73;;;2.40;99.90;;;;;;2232328;64;20299;-71
2022/05/01 04:15:23;;;;;;;33.95;24.98;;;2.40;99.90;;;;;;2230909;64;20274;-71
2022/05/01 04:18:04;;;;;;;34.42;23.58;;;2.40;99.90;;;;;;2230914;64;20188;-71
2022/05/01 04:20:46;;;;;;;36.60;25.08;;;2.40;99.90;;;;;;2235574;64;20214;-71
2022/05/01 04:23:26;;;;;;;31.58;23.75;;;2.40;99.90;;;;;;2238519;64;20162;-72
2022/05/01 04:26:05;;;;;;;30.58;22.10;;;2.40;99.90;;;;;;2238518;64;20312;-71
2022/05/01 04:29:36;;;;;;;32.45;24.83;;;2.40;99.90;;;;;;2238000;64;20252;-71
2022/05/01 04:31:39;;;;;;;35.42;23.77;;;2.50;99.90;;;;;;2238652;64;20564;-71
2022/05/01 04:34:18;;;;;;;28.70;20.98;;;2.50;99.90;;;;;;2238682;64;20162;-72
2022/05/01 04:36:59;;;;;;;29.85;22.90;;;2.50;99.90;;;;;;2238661;64;20191;-72
2022/05/01 04:39:40;;;;;;;27.98;20.00;;;2.50;99.90;;;;;;2238457;64;20285;-72
2022/05/01 04:42:19;;;;;;;25.58;20.05;;;2.50;99.90;;;;;;2238632;64;20272;-70
2022/05/01 04:44:57;;;;;;;29.00;20.25;;;2.50;99.90;;;;;;2237627;64;20166;-71
2022/05/01 04:47:38;;;;;;;28.48;18.13;;;2.60;99.90;;;;;;2238809;64;20162;-72
2022/05/01 04:50:19;;;;;;;23.23;18.48;;;2.60;99.90;;;;;;2239289;64;20855;-72
2022/05/01 04:52:57;;;;;;;26.02;19.48;;;2.60;99.90;;;;;;2238497;64;20170;-71
2022/05/01 04:55:39;;;;;;;25.05;18.50;;;2.60;99.90;;;;;;2238211;64;20246;-71
2022/05/01 04:58:20;;;;;;;24.83;18.42;;;2.70;99.90;;;;;;2238358;64;20158;-70
2022/05/01 05:00:57;;;;;;;22.42;16.13;;;2.70;99.90;;;;;;2004114;64;15115883;-70
2022/05/01 05:03:34;;;;;;;24.17;18.25;;;2.80;99.90;;;;;;2238401;64;20661;-72
2022/05/01 05:06:11;;;;;;;22.98;18.52;;;2.80;99.90;;;;;;2238479;64;20369;-71
2022/05/01 05:11:43;;;;;;;25.58;19.65;;;2.90;99.90;;;;;;2230557;64;20225;-71
2022/05/01 05:14:24;;;;;;;26.88;19.20;;;3.00;99.90;;;;;;2230548;64;20206;-72
2022/05/01 05:17:09;;;;;;;27.63;19.80;;;3.10;99.90;;;;;;2230578;64;20166;-71
2022/05/01 05:19:47;;;;;;;26.52;20.52;;;3.20;99.90;;;;;;2230292;64;20329;-71
2022/05/01 05:22:28;;;;;;;25.02;19.52;;;3.20;99.90;;;;;;2237867;64;20200;-71
2022/05/01 05:25:12;;;;;;;26.10;19.45;;;3.30;99.90;;;;;;2238198;64;20319;-71
2022/05/01 05:27:49;;;;;;;28.65;20.58;;;3.40;99.90;;;;;;2238188;64;20250;-70
2022/05/01 05:30:25;;;;;;;27.83;20.10;;;3.40;99.90;;;;;;2238258;64;20179;-71
2022/05/01 05:33:04;;;;;;;27.75;21.17;;;3.50;99.90;;;;;;2238313;64;20669;-71
2022/05/01 05:35:42;;;;;;;28.13;20.90;;;3.60;99.90;;;;;;2234309;64;20194;-71
2022/05/01 05:38:21;;;;;;;29.77;21.73;;;3.70;99.90;;;;;;2235120;64;20781;-72
2022/05/01 05:40:59;;;;;;;28.98;20.92;;;3.70;99.90;;;;;;2239269;64;20297;-72
2022/05/01 05:43:40;;;;;;;26.35;19.65;;;3.80;99.90;;;;;;2239348;64;20959;-71
2022/05/01 05:46:21;;;;;;;29.20;20.55;;;4.00;99.90;;;;;;2239959;64;20254;-70
2022/05/01 05:48:59;;;;;;;26.65;19.90;;;4.10;99.90;;;;;;2239961;64;20799;-71
2022/05/01 05:51:38;;;;;;;24.60;18.70;;;4.20;99.90;;;;;;2239489;64;20579;-72
2022/05/01 05:54:17;;;;;;;22.08;17.52;;;4.30;99.90;;;;;;2238834;64;20695;-71
2022/05/01 05:56:54;;;;;;;23.23;16.95;;;4.30;99.90;;;;;;2239607;64;20661;-70
2022/05/01 05:59:30;;;;;;;23.02;17.42;;;4.40;99.90;;;;;;2239451;64;20358;-71
2022/05/01 06:02:09;;;;;;;20.08;16.77;;;4.50;99.90;;;;;;2239467;64;20178;-71
2022/05/01 06:04:48;;;;;;;20.60;15.38;;;4.60;99.90;;;;;;2239385;64;20297;-71
2022/05/01 06:07:25;;;;;;;19.50;14.93;;;4.70;99.90;;;;;;2239920;64;20281;-70
2022/05/01 06:10:02;;;;;;;18.17;14.23;;;4.80;99.90;;;;;;2239350;64;20202;-71
2022/05/01 06:12:43;;;;;;;15.63;13.88;;;4.90;99.90;;;;;;2239914;64;20181;-71
2022/05/01 06:15:24;;;;;;;18.63;13.43;;;5.00;99.90;;;;;;2241286;64;20186;-71
2022/05/01 06:18:00;;;;;;;16.65;13.02;;;5.10;99.90;;;;;;2242522;64;20363;-71
2022/05/01 06:20:37;;;;;;;15.88;13.13;;;5.20;99.90;;;;;;2241795;64;20216;-70
2022/05/01 06:23:15;;;;;;;15.13;11.27;;;5.30;99.90;;;;;;2241451;64;20179;-70
2022/05/01 06:25:55;;;;;;;17.77;12.90;;;5.40;99.90;;;;;;2239335;64;20173;-71
2022/05/01 06:28:32;;;;;;;14.98;10.40;;;5.50;99.90;;;;;;2242215;64;20196;-70
2022/05/01 06:31:09;;;;;;;14.52;11.50;;;5.60;99.90;;;;;;2242813;64;20198;-70
2022/05/01 06:33:47;;;;;;;14.63;10.93;;;5.70;99.90;;;;;;2240950;64;20190;-71
2022/05/01 06:36:24;;;;;;;14.82;11.93;;;5.80;99.90;;;;;;2240414;64;20178;-72
2022/05/01 06:39:00;;;;;;;12.77;10.70;;;5.90;99.90;;;;;;2240506;64;20374;-71
2022/05/01 06:41:38;;;;;;;15.10;10.27;;;6.00;99.90;;;;;;2240718;64;20170;-70
2022/05/01 06:44:16;;;;;;;12.65;9.05;;;6.20;99.90;;;;;;2240770;64;20298;-70
2022/05/01 06:46:55;;;;;;;11.05;9.57;;;6.30;99.90;;;;;;2232920;64;20188;-70
2022/05/01 06:49:32;;;;;;;11.02;8.98;;;6.50;99.90;;;;;;2236973;64;20167;-70
2022/05/01 06:52:08;;;;;;;10.15;8.63;;;6.60;99.90;;;;;;2239023;64;20173;-71
2022/05/01 06:54:46;;;;;;;10.85;8.40;;;6.80;99.90;;;;;;2236820;64;20179;-71
2022/05/01 06:57:26;;;;;;;11.05;8.90;;;6.90;99.90;;;;;;2243000;63;20186;-71
2022/05/01 07:00:08;;;;;;;9.20;8.27;;;7.10;99.90;;;;;;2241065;64;20253;-72
2022/05/01 07:02:47;;;;;;;11.55;8.32;;;7.20;99.90;;;;;;2241072;64;20237;-71
2022/05/01 07:05:27;;;;;;;13.45;8.30;;;7.40;99.90;;;;;;2240068;64;20183;-69
2022/05/01 07:08:05;;;;;;;7.65;6.93;;;7.50;99.90;;;;;;2241633;64;20166;-72
2022/05/01 07:10:41;;;;;;;9.80;7.97;;;7.60;99.90;;;;;;2245006;64;20210;-71
2022/05/01 07:13:23;;;;;;;9.73;7.97;;;7.70;99.90;;;;;;2246334;64;20217;-72
2022/05/01 07:16:02;;;;;;;10.77;7.03;;;7.90;99.90;;;;;;2241994;64;20211;-70
2022/05/01 07:18:40;;;;;;;8.63;7.32;;;8.00;99.90;;;;;;2240326;64;20170;-72
2022/05/01 07:21:19;;;;;;;7.88;6.63;;;8.00;99.90;;;;;;2239033;64;20190;-72
2022/05/01 07:23:57;;;;;;;8.85;6.50;;;8.10;99.90;;;;;;2238116;64;20162;-71
2022/05/01 07:26:38;;;;;;;7.47;6.70;;;8.30;99.90;;;;;;2238535;64;20469;-70
2022/05/01 07:29:17;;;;;;;9.02;7.93;;;8.50;99.90;;;;;;2238419;64;20270;-71
2022/05/01 07:31:54;;;;;;;8.68;6.65;;;8.60;99.90;;;;;;2237886;64;20188;-71
2022/05/01 07:34:31;;;;;;;7.70;5.60;;;8.70;99.90;;;;;;2239511;63;20211;-71
2022/05/01 07:37:09;;;;;;;6.97;5.80;;;8.90;99.90;;;;;;2237253;64;20170;-72
2022/05/01 07:39:54;;;;;;;7.03;5.57;;;8.90;99.90;;;;;;2237136;64;20178;-72
2022/05/01 07:42:34;;;;;;;7.43;5.85;;;9.00;99.90;;;;;;2237945;63;20196;-73
2022/05/01 07:45:15;;;;;;;6.97;6.05;;;9.10;99.90;;;;;;2238936;64;20170;-71
2022/05/01 07:47:58;;;;;;;9.13;5.35;;;9.30;99.90;;;;;;2238409;64;20273;-71
2022/05/01 07:50:37;;;;;;;6.05;5.45;;;9.40;99.90;;;;;;2238266;64;20206;-72
2022/05/01 07:53:22;;;;;;;5.40;4.88;;;9.70;99.90;;;;;;2238172;64;20541;-71
2022/05/01 07:55:59;;;;;;;5.50;5.00;;;9.80;99.90;;;;;;2239039;64;20696;-70
2022/05/01 07:58:35;;;;;;;7.10;5.22;;;9.90;99.90;;;;;;2237102;64;20166;-71
2022/05/01 08:01:12;;;;;;;7.28;4.93;;;10.00;99.90;;;;;;2236505;63;20736;-72
2022/05/01 08:06:52;;;;;;;9.95;5.03;;;10.40;99.90;;;;;;2239594;64;20194;-70
2022/05/01 08:09:31;;;;;;;7.00;4.80;;;10.60;99.90;;;;;;2237142;64;20236;-71
2022/05/01 08:12:08;;;;;;;4.88;4.32;;;10.90;99.90;;;;;;2236273;63;20347;-72
2022/05/01 08:14:46;;;;;;;3.65;3.35;;;11.20;99.90;;;;;;2236340;64;20196;-71
2022/05/01 08:17:26;;;;;;;6.03;4.45;;;11.60;99.90;;;;;;2238028;64;20210;-72
2022/05/01 08:23:07;;;;;;;5.10;4.55;;;11.80;99.90;;;;;;2237864;64;20188;-73
2022/05/01 08:25:48;;;;;;;6.43;4.50;;;12.00;99.90;;;;;;2231951;64;20332;-72
2022/05/01 08:28:28;;;;;;;5.47;4.07;;;12.10;99.90;;;;;;2238658;64;20579;-72
2022/05/01 08:31:06;;;;;;;4.55;4.15;;;12.10;99.90;;;;;;2238737;64;20191;-71
2022/05/01 08:33:42;;;;;;;6.07;3.78;;;12.10;99.90;;;;;;2238610;64;20193;-72
2022/05/01 08:36:19;;;;;;;6.43;4.20;;;12.10;98.90;;;;;;2238687;64;20571;-71
2022/05/01 08:38:56;;;;;;;4.68;3.83;;;12.10;98.30;;;;;;2238163;64;20663;-72
2022/05/01 08:41:35;;;;;;;5.43;4.03;;;12.10;97.70;;;;;;2238622;64;20545;-71
2022/05/01 08:44:16;;;;;;;6.43;4.00;;;12.20;96.80;;;;;;2239392;64;20542;-72
2022/05/01 08:46:52;;;;;;;4.10;3.70;;;12.20;96.80;;;;;;2239160;64;20280;-72
2022/05/01 08:49:35;;;;;;;4.85;3.95;;;12.30;96.90;;;;;;2238520;64;20194;-72
2022/05/01 08:52:18;;;;;;;5.03;3.70;;;12.50;96.40;;;;;;2238020;64;20169;-72
2022/05/01 08:54:56;;;;;;;4.95;3.63;;;12.80;96.20;;;;;;2240836;64;20312;-71
2022/05/01 08:57:35;;;;;;;5.18;4.03;;;12.90;95.40;;;;;;2238612;64;20162;-72
2022/05/01 09:00:18;;;;;;;5.20;3.80;;;13.10;94.90;;;;;;2238515;64;20213;-71
2022/05/01 09:02:56;;;;;;;6.80;4.35;;;13.30;92.90;;;;;;2238371;64;20178;-71
2022/05/01 09:05:37;;;;;;;4.70;3.85;;;13.40;92.40;;;;;;2238457;64;20301;-71
2022/05/01 09:08:19;;;;;;;4.35;3.72;;;13.60;91.30;;;;;;2233953;64;20178;-71
2022/05/01 09:12:49;;;;;;;6.25;3.90;;;13.60;90.90;;;;;;2230745;64;20167;-72
2022/05/01 09:13:54;;;;;;;4.80;4.30;;;13.70;90.60;;;;;;2230731;64;20196;-72
2022/05/01 09:16:36;;;;;;;5.85;4.43;;;13.90;90.60;;;;;;2230591;64;20162;-73
2022/05/01 09:19:31;;;;;;;4.40;3.95;;;13.90;88.50;;;;;;2230838;64;20209;-72
2022/05/01 09:22:12;;;;;;;4.75;4.25;;;13.90;88.60;;;;;;2238264;64;20255;-71
2022/05/01 09:24:53;;;;;;;7.68;4.78;;;14.10;87.60;;;;;;2237528;64;20150;-70
2022/05/01 09:27:56;;;;;;;5.47;4.25;;;14.00;84.90;;;;;;2238404;64;20189;-72
2022/05/01 09:30:42;;;;;;;6.78;4.55;;;14.00;86.30;;;;;;2238455;64;20191;-72
2022/05/01 09:33:19;;;;;;;6.20;4.03;;;14.20;86.00;;;;;;2238328;64;20571;-72
2022/05/01 09:35:56;;;;;;;5.68;4.72;;;14.30;85.80;;;;;;2238422;64;20761;-72
2022/05/01 09:38:33;;;;;;;4.60;4.20;;;14.50;86.30;;;;;;2238277;64;20712;-72
2022/05/01 09:41:14;;;;;;;4.50;3.72;;;14.60;83.90;;;;;;2237801;64;20186;-73
2022/05/01 09:43:52;;;;;;;5.82;4.13;;;14.70;83.10;;;;;;2238530;64;20186;-73
2022/05/01 09:46:34;;;;;;;6.43;4.10;;;14.70;83.10;;;;;;2238777;64;20162;-72
2022/05/01 09:49:14;;;;;;;5.20;4.30;;;15.20;82.70;;;;;;2238627;64;20319;-71
2022/05/01 09:51:57;;;;;;;4.95;4.47;;;14.80;80.20;;;;;;2231987;64;20244;-71
2022/05/01 09:54:34;;;;;;;4.22;3.83;;;14.80;78.50;;;;;;2238731;64;20182;-71
2022/05/01 09:57:24;;;;;;;6.22;4.55;;;15.20;78.00;;;;;;2241341;64;20319;-72
2022/05/01 10:00:09;;;;;;;4.80;4.20;;;14.90;78.70;;;;;;2239486;64;20254;-72
2022/05/01 10:02:46;;;;;;;7.60;4.70;;;15.00;77.20;;;;;;2238877;64;20375;-72
2022/05/01 10:05:23;;;;;;;4.68;4.25;;;15.00;76.60;;;;;;2238947;64;20248;-71
2022/05/01 10:08:00;;;;;;;5.32;4.82;;;14.90;75.50;;;;;;2238448;64;20208;-72
2022/05/01 10:10:37;;;;;;;7.35;4.43;;;14.90;75.30;;;;;;2238537;64;20247;-72
2022/05/01 10:13:15;;;;;;;6.47;4.65;;;14.80;75.30;;;;;;2238260;64;20207;-71
2022/05/01 10:15:56;;;;;;;5.68;4.35;;;14.90;75.30;;;;;;2237482;64;20186;-71
2022/05/01 10:18:33;;;;;;;6.47;4.60;;;15.20;75.10;;;;;;2238242;64;20195;-74
2022/05/01 10:21:11;;;;;;;5.47;4.35;;;15.00;74.50;;;;;;2238388;64;20218;-72
2022/05/01 10:23:52;;;;;;;4.70;4.25;;;14.80;73.90;;;;;;2238219;64;20741;-71
2022/05/01 10:26:34;;;;;;;4.57;3.85;;;14.90;74.80;;;;;;2238086;64;20192;-71
2022/05/01 10:32:20;;;;;;;5.45;4.10;;;15.00;74.60;;;;;;2239301;64;20258;-71
2022/05/01 10:33:08;;;;;;;5.60;4.50;;;15.10;72.20;;;;;;2231763;64;20218;-71
2022/05/01 10:35:47;;;;;;;7.00;3.88;;;15.00;71.40;;;;;;2237796;64;20178;-71
2022/05/01 10:38:42;;;;;;;6.60;4.07;;;14.90;71.60;;;;;;2239969;64;20180;-71
2022/05/01 10:41:19;;;;;;;4.20;3.83;;;14.90;70.50;;;;;;2239366;64;20219;-72
2022/05/01 10:43:57;;;;;;;5.82;3.92;;;15.20;71.70;;;;;;2239413;64;20332;-71
2022/05/01 10:46:34;;;;;;;9.05;4.20;;;15.20;71.40;;;;;;2241113;64;20177;-71
2022/05/01 10:49:34;;;;;;;4.68;3.75;;;15.40;69.90;;;;;;2233700;64;20166;-72
2022/05/01 10:52:22;;;;;;;6.38;3.70;;;15.40;70.10;;;;;;2236233;64;20297;-71
2022/05/01 10:55:06;;;;;;;4.47;4.00;;;15.60;69.10;;;;;;2239273;64;20282;-72
2022/05/01 10:58:27;;;;;;;5.97;3.60;;;16.00;69.50;;;;;;2239165;64;20189;-71
2022/05/01 11:01:05;;;;;;;4.30;3.53;;;16.60;68.70;;;;;;2239110;64;20264;-72
2022/05/01 11:03:55;;;;;;;5.18;3.63;;;17.20;68.00;;;;;;2238488;64;20188;-72
2022/05/01 11:06:34;;;;;;;5.53;3.50;;;17.40;66.40;;;;;;2239089;64;20166;-73
2022/05/01 11:09:23;;;;;;;5.22;3.88;;;17.50;65.70;;;;;;2239134;64;20154;-73
2022/05/01 11:12:09;;;;;;;6.30;3.97;;;17.30;64.60;;;;;;2239005;64;20184;-71
2022/05/01 11:15:09;;;;;;;5.35;3.70;;;17.00;62.50;;;;;;2239073;64;20191;-72
2022/05/01 11:17:52;;;;;;;3.20;2.90;;;16.80;61.90;;;;;;2238449;64;20301;-71
2022/05/01 11:20:34;;;;;;;5.10;3.75;;;16.80;62.00;;;;;;2238329;64;20297;-73
2022/05/01 11:23:33;;;;;;;4.18;3.20;;;16.90;62.40;;;;;;2239270;64;20226;-70
2022/05/01 11:26:13;;;;;;;6.90;3.72;;;17.00;62.70;;;;;;2238837;64;20602;-72
2022/05/01 11:28:57;;;;;;;3.20;2.90;;;17.10;62.20;;;;;;2238943;64;20170;-72
2022/05/01 11:31:36;;;;;;;5.22;3.10;;;17.30;62.10;;;;;;2238865;64;20170;-72
2022/05/01 11:34:22;;;;;;;3.70;3.25;;;17.80;61.90;;;;;;2238802;64;20227;-72
2022/05/01 11:37:09;;;;;;;7.45;3.45;;;18.30;59.50;;;;;;2238200;64;20178;-72
2022/05/01 11:39:50;;;;;;;5.07;3.20;;;19.20;59.00;;;;;;2238899;64;20170;-72
2022/05/01 11:42:36;;;;;;;3.38;3.08;;;19.90;57.20;;;;;;2238868;64;20326;-71
2022/05/01 11:45:14;;;;;;;4.13;3.05;;;20.30;56.30;;;;;;2238901;64;20240;-70
2022/05/01 11:47:53;;;;;;;4.15;2.92;;;20.30;54.70;;;;;;2238078;64;20655;-71
2022/05/01 11:50:32;;;;;;;3.72;2.70;;;20.70;53.90;;;;;;2238765;64;20792;-71
2022/05/01 11:53:43;;;;;;;5.13;2.88;;;20.30;53.00;;;;;;2238917;64;20319;-72
2022/05/01 12:02:25;;;;;;;3.92;2.92;;;21.00;51.20;;;;;;2235624;64;20297;-71
2022/05/01 12:05:05;;;;;;;2.95;2.60;;;21.30;50.50;;;;;;2238415;64;20347;-73
2022/05/01 12:07:42;;;;;;;4.00;3.00;;;21.80;49.90;;;;;;2239843;64;20191;-72
2022/05/01 12:10:21;;;;;;;2.85;2.55;;;22.30;49.90;;;;;;2238930;64;20250;-72
2022/05/01 12:13:16;;;;;;;4.80;3.30;;;23.20;49.50;;;;;;2231150;64;20207;-73
2022/05/01 12:15:53;;;;;;;3.80;3.33;;;24.30;49.80;;;;;;2234476;64;20174;-71
2022/05/01 12:18:30;;;;;;;3.28;2.97;;;25.20;49.00;;;;;;2240745;64;20262;-72
2022/05/01 12:21:07;;;;;;;5.38;3.60;;;26.10;46.70;;;;;;2239029;64;20211;-72
2022/05/01 12:23:49;;;;;;;2.90;2.70;;;26.50;44.40;;;;;;2238773;64;20162;-72
2022/05/01 12:26:29;;;;;;;3.40;3.08;;;26.60;44.00;;;;;;2237887;64;20207;-71
2022/05/01 12:29:08;;;;;;;3.90;3.45;;;26.30;42.50;;;;;;2238574;64;20591;-73
2022/05/01 12:32:15;;;;;;;3.30;3.00;;;26.10;42.90;;;;;;2238547;64;20194;-73
2022/05/01 12:35:03;;;;;;;3.10;2.50;;;26.10;43.50;;;;;;2214268;64;20194;-71
2022/05/01 12:37:45;;;;;;;5.00;3.40;;;25.90;42.60;;;;;;2212643;64;20210;-73
2022/05/01 12:43:52;;;;;;;4.18;3.20;;;25.10;44.40;;;;;;2194724;65;20174;-71
2022/05/01 12:46:31;;;;;;;4.05;3.45;;;24.40;45.80;;;;;;2206498;65;20282;-73
2022/05/01 12:49:24;;;;;;;3.80;2.95;;;24.20;46.00;;;;;;2206597;64;20760;-72
2022/05/01 12:52:02;;;;;;;4.45;3.40;;;24.00;46.30;;;;;;2206477;64;20169;-72
2022/05/01 12:54:41;;;;;;;3.80;3.45;;;23.80;46.30;;;;;;2214181;64;20358;-72
2022/05/01 12:57:35;;;;;;;4.95;3.40;;;23.80;46.10;;;;;;2214159;64;20188;-72
2022/05/01 13:00:29;;;;;;;3.85;3.05;;;23.70;45.70;;;;;;2213595;64;20248;-73
2022/05/01 13:03:19;;;;;;;3.85;3.13;;;23.30;46.30;;;;;;2212513;64;20216;-73
2022/05/01 13:06:13;;;;;;;4.65;3.00;;;22.90;46.20;;;;;;2214118;64;20176;-73
2022/05/01 13:08:52;;;;;;;3.22;2.80;;;22.40;46.90;;;;;;2214116;64;20211;-72
2022/05/01 13:11:30;;;;;;;3.25;2.83;;;22.10;47.40;;;;;;2225993;64;20233;-72
2022/05/01 13:14:23;;;;;;;3.75;3.03;;;22.20;48.10;;;;;;2238461;64;20187;-71
2022/05/01 13:17:11;;;;;;;3.20;2.90;;;22.10;47.50;;;;;;2237930;64;20302;-72
2022/05/01 13:19:49;;;;;;;3.58;2.63;;;21.80;48.10;;;;;;2238536;64;20170;-73
2022/05/01 13:22:25;;;;;;;3.50;3.20;;;21.80;48.30;;;;;;2238602;64;20170;-72
2022/05/01 13:25:04;;;;;;;3.22;2.65;;;23.10;47.90;;;;;;2238927;64;20212;-72
2022/05/01 13:27:45;;;;;;;4.13;2.60;;;25.00;46.60;;;;;;2239331;64;20267;-73
2022/05/01 13:30:24;;;;;;;4.20;2.72;;;26.80;45.00;;;;;;2238644;64;20154;-72
2022/05/01 13:33:01;;;;;;;3.95;3.05;;;28.40;42.80;;;;;;2238016;64;20774;-73
2022/05/01 13:35:39;;;;;;;3.10;2.80;;;29.60;40.70;;;;;;2238530;64;20343;-72
2022/05/01 13:38:18;;;;;;;3.40;3.13;;;29.50;39.60;;;;;;2238225;64;20307;-73
2022/05/01 13:46:45;;;;;;;3.13;2.83;;;25.80;41.10;;;;;;2238176;64;20196;-72
2022/05/01 13:49:23;;;;;;;4.43;3.47;;;24.80;42.70;;;;;;2232111;64;20171;-72
2022/05/01 13:52:04;;;;;;;3.03;2.72;;;24.20;43.40;;;;;;2233157;64;20221;-72
2022/05/01 13:54:40;;;;;;;2.97;2.67;;;24.90;43.30;;;;;;2238009;64;20346;-72
2022/05/01 13:57:21;;;;;;;3.65;3.10;;;26.50;42.20;;;;;;2238332;64;20654;-72
2022/05/01 14:00:02;;;;;;;3.15;2.85;;;27.00;41.10;;;;;;2238506;64;20169;-72
2022/05/01 14:02:43;;;;;;;3.33;3.03;;;27.00;40.40;;;;;;2238549;64;20257;-72
2022/05/01 14:05:22;;;;;;;3.47;2.80;;;26.70;40.70;;;;;;2239376;64;20180;-73
2022/05/01 14:07:59;;;;;;;2.83;2.42;;;26.70;40.60;;;;;;2238578;64;20193;-72
2022/05/01 14:10:36;;;;;;;3.33;2.72;;;25.90;41.40;;;;;;2233463;64;20620;-73
2022/05/01 14:13:13;;;;;;;3.75;2.58;;;25.00;42.50;;;;;;2239792;64;20246;-72
2022/05/01 14:15:50;;;;;;;3.38;2.58;;;24.60;43.30;;;;;;2238976;64;20205;-73
2022/05/01 14:18:30;;;;;;;3.58;2.70;;;24.30;44.00;;;;;;2239758;64;20296;-71
2022/05/01 14:21:11;;;;;;;3.90;2.78;;;23.80;44.70;;;;;;2240115;64;20233;-72
2022/05/01 14:23:48;;;;;;;3.35;3.05;;;23.10;45.70;;;;;;2242625;64;20170;-73
2022/05/01 14:26:25;;;;;;;4.80;3.20;;;22.80;46.60;;;;;;2245281;64;20170;-74
2022/05/01 14:29:01;;;;;;;3.20;2.90;;;22.00;47.00;;;;;;2243708;64;20550;-73
2022/05/01 14:31:46;;;;;;;3.72;3.38;;;21.40;47.90;;;;;;2242376;64;20224;-72